Hauptseite
METAR-TAF:

METAR-TAF

Flughäfen :

Flughafen Wien-Schwechat

Wien, Österreich

Breite: 48-07N, Länge: 016-34E, Höhe: 183 m

Beobachtung

Neuester Wetterbericht von vor 14 Minuten, um 07:50 UTC
Wind 5 kt aus Nord, variierte zwischen West/Nordwest und Ost/Südost
Temperatur 22°C
Luftfeuchtigkeit 50%
Luftdruck 1022 hPa
Sichtweite 10 km oder mehr
keine Wolken unter 1500 m und keine Kumulonimbus oder Gewitterwolken

METAR: LOWW 110750Z 36005KT 300V110 CAVOK 22/11 Q1022 NOSIG

Zeit: 10:04 (08:04 UTC)

Prognose

Neuester Wetterbericht von vor 2 Stunden und 49 Minuten, um 05:15 UTC
Gültige Prognose vom 11 um 06 UTC bis 12 um 12 UTC
Wind 8 kt aus Nord
Sichtweite 10 km oder mehr
keine Wolken unter 1500 m und keine Kumulonimbus oder Gewitterwolken
Übergehend zu
vom 11 um 20 UTC bis 11 um 22 UTC
Wind 4 kt aus unterschiedlichen Richtungen

TAF: LOWW 110515Z 1106/1212 01008KT CAVOK TX26/1115Z TN14/1204Z BECMG 1120/1122 VRB04KT

Wetterbeobachtungen und Prognosen von mehr als 4000 Flughäfen (METAR und TAF Bericht).

Die verfügbaren Stationen werden durch gelbe und rote Markierungen auf der Karte dargestellt.

Führen Sie die Maus auf sie, um den Namen der Station zu sehen.

Darauf klicken, um die Beobachtung von Wetterbeobachtungen und Prognosen zu sehen.

Um die Karte zu ändern : klicken Sie auf den grünen Tasten mit einem schwarzen Kreuz Zum Vergrößern, auf den grünen Button mit einem Gedankenstrich zu verkleinern, oder auf die grünen Pfeile für benachbarte Karten.


METAR-TAF: